createdAt,value
2018-11-07T00:02:27.243Z,12.53
2018-11-07T00:04:55.339Z,9.53
2018-11-07T00:07:23.441Z,11.70
2018-11-07T00:09:51.763Z,10.53
2018-11-07T00:12:19.884Z,15.37
2018-11-07T00:14:48.011Z,11.40
2018-11-07T00:17:16.109Z,11.83
2018-11-07T00:19:44.441Z,14.43
2018-11-07T00:22:12.528Z,9.57
2018-11-07T00:24:41.688Z,9.40
2018-11-07T00:27:09.998Z,11.13
2018-11-07T00:29:39.146Z,9.80
2018-11-07T00:32:08.234Z,11.00
2018-11-07T00:34:36.996Z,11.10
2018-11-07T00:37:06.046Z,9.70
2018-11-07T00:39:34.300Z,10.83
2018-11-07T00:42:02.414Z,9.83
2018-11-07T00:44:30.762Z,10.57
2018-11-07T00:46:58.848Z,10.63
2018-11-07T00:49:26.994Z,9.37
2018-11-07T00:51:55.131Z,9.77
2018-11-07T00:54:23.370Z,9.20
2018-11-07T00:56:51.475Z,8.50
2018-11-07T00:59:19.711Z,12.17
2018-11-07T01:01:47.850Z,11.27
2018-11-07T01:04:15.947Z,8.83
2018-11-07T01:06:44.077Z,9.60
2018-11-07T01:09:12.972Z,10.60
2018-11-07T01:11:42.434Z,9.23
2018-11-07T01:14:10.585Z,10.13
2018-11-07T01:16:38.795Z,8.30
2018-11-07T01:19:08.721Z,8.90
2018-11-07T01:21:36.828Z,10.00
2018-11-07T01:24:05.095Z,7.03
2018-11-07T01:26:33.209Z,8.47
2018-11-07T01:29:01.821Z,8.63
2018-11-07T01:31:29.921Z,8.77
2018-11-07T01:33:58.027Z,8.50
2018-11-07T01:36:26.189Z,7.80
2018-11-07T01:38:54.446Z,8.27
2018-11-07T01:41:22.608Z,11.97
2018-11-07T01:43:50.698Z,9.67
2018-11-07T01:46:18.803Z,6.43
2018-11-07T01:48:47.048Z,7.00
2018-11-07T01:51:15.157Z,6.97
2018-11-07T01:54:02.309Z,8.63
2018-11-07T01:56:30.416Z,8.77
2018-11-07T01:58:58.520Z,7.87
2018-11-07T02:01:26.605Z,6.70
2018-11-07T02:03:54.723Z,8.83
2018-11-07T02:06:22.823Z,9.13
2018-11-07T02:08:51.084Z,5.90
2018-11-07T02:11:19.180Z,11.27
2018-11-07T02:13:47.275Z,8.97
2018-11-07T02:16:15.386Z,6.17
2018-11-07T02:18:43.588Z,6.50
2018-11-07T02:21:11.686Z,6.83
2018-11-07T02:23:39.823Z,6.07
2018-11-07T02:26:07.968Z,7.30
2018-11-07T02:28:36.062Z,6.27
2018-11-07T02:31:04.420Z,6.17
2018-11-07T02:33:32.516Z,7.20
2018-11-07T02:36:00.683Z,6.80
2018-11-07T02:38:28.985Z,6.20
2018-11-07T02:40:57.085Z,5.33
2018-11-07T02:43:25.191Z,5.73
2018-11-07T02:45:53.275Z,4.67
2018-11-07T02:48:21.467Z,5.20
2018-11-07T02:50:49.565Z,6.87
2018-11-07T02:53:17.778Z,4.60
2018-11-07T02:55:45.827Z,6.33
2018-11-07T02:58:13.929Z,4.77
2018-11-07T03:00:42.050Z,5.83
2018-11-07T03:03:10.144Z,4.87
2018-11-07T03:05:38.255Z,5.00
2018-11-07T03:08:07.240Z,4.33
2018-11-07T03:10:35.437Z,5.73
2018-11-07T03:13:03.482Z,4.50
2018-11-07T03:15:31.616Z,4.43
2018-11-07T03:17:59.692Z,4.70
2018-11-07T03:20:27.797Z,4.60
2018-11-07T03:22:55.892Z,5.67
2018-11-07T03:25:23.977Z,4.13
2018-11-07T03:27:52.075Z,5.50
2018-11-07T03:30:20.166Z,8.53
2018-11-07T03:32:48.272Z,7.80
2018-11-07T03:35:21.791Z,4.67
2018-11-07T03:37:49.879Z,10.57
2018-11-07T03:40:18.095Z,5.70
2018-11-07T03:42:46.311Z,5.07
2018-11-07T03:45:14.574Z,4.47
2018-11-07T03:47:42.966Z,4.53
2018-11-07T03:50:11.437Z,5.90
2018-11-07T03:52:39.723Z,4.47
2018-11-07T03:55:08.610Z,5.45
2018-11-07T03:57:37.102Z,4.50
2018-11-07T04:00:07.704Z,5.03
2018-11-07T04:02:35.821Z,4.10
2018-11-07T04:05:04.210Z,5.77
2018-11-07T04:07:32.296Z,5.17
2018-11-07T04:10:00.498Z,3.80
2018-11-07T04:12:28.609Z,5.23
2018-11-07T04:14:56.692Z,5.83
2018-11-07T04:17:25.013Z,3.30
2018-11-07T04:19:53.176Z,4.60
2018-11-07T04:22:21.295Z,4.27
2018-11-07T04:24:49.432Z,4.47
2018-11-07T04:27:17.595Z,3.57
2018-11-07T04:29:45.842Z,3.47
2018-11-07T04:32:14.285Z,3.00
2018-11-07T04:34:42.367Z,4.30
2018-11-07T04:37:10.466Z,3.20
2018-11-07T04:39:38.951Z,3.30
2018-11-07T04:42:07.054Z,4.10
2018-11-07T04:44:35.159Z,3.93
2018-11-07T04:47:03.909Z,4.80
2018-11-07T04:49:32.419Z,3.00
2018-11-07T04:52:00.517Z,3.67
2018-11-07T04:54:29.670Z,3.37
2018-11-07T04:56:58.692Z,5.03
2018-11-07T04:59:27.099Z,3.43
2018-11-07T05:01:56.804Z,3.77
2018-11-07T05:04:26.702Z,4.83
2018-11-07T05:06:55.836Z,3.53
2018-11-07T05:09:24.906Z,4.10
2018-11-07T05:11:53.971Z,4.63
2018-11-07T05:14:22.356Z,3.33
2018-11-07T05:16:51.695Z,3.47
2018-11-07T05:19:23.714Z,4.27
2018-11-07T05:21:52.377Z,3.13
2018-11-07T05:24:21.265Z,3.40
2018-11-07T05:26:49.340Z,3.30
2018-11-07T05:29:17.604Z,4.13
2018-11-07T05:31:45.707Z,4.27
2018-11-07T05:34:13.888Z,3.37
2018-11-07T05:36:41.983Z,3.90
2018-11-07T05:39:12.143Z,3.90
2018-11-07T05:41:40.284Z,3.73
2018-11-07T05:44:08.417Z,6.80
2018-11-07T05:46:36.502Z,4.70
2018-11-07T05:49:04.727Z,3.60
2018-11-07T05:51:32.785Z,3.50
2018-11-07T05:54:00.936Z,4.37
2018-11-07T05:59:13.306Z,4.97
2018-11-07T06:01:41.466Z,4.27
2018-11-07T06:04:09.861Z,4.43
2018-11-07T06:06:37.963Z,5.43
2018-11-07T06:09:06.775Z,6.10
2018-11-07T06:11:35.048Z,3.60
2018-11-07T06:14:03.144Z,5.03
2018-11-07T06:16:31.235Z,4.07
2018-11-07T06:18:59.491Z,5.17
2018-11-07T06:21:27.592Z,5.60
2018-11-07T06:23:55.705Z,5.37
2018-11-07T06:26:23.808Z,4.07
2018-11-07T06:28:52.014Z,4.90
2018-11-07T06:31:20.962Z,8.17
2018-11-07T06:33:53.189Z,4.40
2018-11-07T06:36:21.301Z,5.20
2018-11-07T06:38:49.603Z,3.97
2018-11-07T06:41:17.980Z,5.63
2018-11-07T06:43:46.136Z,4.60
2018-11-07T06:46:14.244Z,4.83
2018-11-07T06:48:42.650Z,6.23
2018-11-07T06:51:10.739Z,6.73
2018-11-07T06:53:38.844Z,5.97
2018-11-07T06:56:06.980Z,6.23
2018-11-07T06:58:35.176Z,6.57
2018-11-07T07:01:03.329Z,6.73
2018-11-07T07:03:31.437Z,6.13
2018-11-07T07:06:04.413Z,5.87
2018-11-07T07:08:32.604Z,6.20
2018-11-07T07:11:03.074Z,5.70
2018-11-07T07:13:31.399Z,4.90
2018-11-07T07:16:00.599Z,6.17
2018-11-07T07:18:30.819Z,4.90
2018-11-07T07:20:58.925Z,7.00
2018-11-07T07:23:27.058Z,5.10
2018-11-07T07:25:56.153Z,5.50
2018-11-07T07:28:24.324Z,4.10
2018-11-07T07:30:55.026Z,5.93
2018-11-07T07:33:23.123Z,4.87
2018-11-07T07:35:51.217Z,5.33
2018-11-07T07:38:19.855Z,7.10
2018-11-07T07:40:47.958Z,5.00
2018-11-07T07:43:16.077Z,7.37
2018-11-07T07:45:44.242Z,6.10
2018-11-07T07:48:12.347Z,5.60
2018-11-07T07:50:40.451Z,5.60
2018-11-07T07:53:08.618Z,4.70
2018-11-07T07:55:36.662Z,4.57
2018-11-07T07:58:04.871Z,10.77
2018-11-07T08:00:32.960Z,6.67
2018-11-07T08:03:01.046Z,6.17
2018-11-07T08:05:29.144Z,9.00
2018-11-07T08:07:57.232Z,5.50
2018-11-07T08:10:25.327Z,5.00
2018-11-07T08:12:53.410Z,7.83
2018-11-07T08:15:21.509Z,6.37
2018-11-07T08:17:49.619Z,4.03
2018-11-07T08:20:18.530Z,6.40
2018-11-07T08:22:47.313Z,5.77
2018-11-07T08:25:15.436Z,5.27
2018-11-07T08:27:43.509Z,4.97
2018-11-07T08:30:15.865Z,5.43
2018-11-07T08:32:43.976Z,5.57
2018-11-07T08:35:13.458Z,5.83
2018-11-07T08:37:42.416Z,4.07
2018-11-07T08:40:14.019Z,5.43
2018-11-07T08:42:42.128Z,4.20
2018-11-07T08:45:11.304Z,4.67
2018-11-07T08:47:39.590Z,4.90
2018-11-07T08:50:10.006Z,7.10
2018-11-07T08:52:38.152Z,6.07
2018-11-07T08:55:07.822Z,6.07
2018-11-07T08:57:35.833Z,4.70
2018-11-07T09:00:06.276Z,3.40
2018-11-07T09:02:34.397Z,4.80
2018-11-07T09:05:02.496Z,5.33
2018-11-07T09:07:30.635Z,4.47
2018-11-07T09:09:58.780Z,4.47
2018-11-07T09:12:26.894Z,3.87
2018-11-07T09:14:54.984Z,2.73
2018-11-07T09:17:23.085Z,3.93
2018-11-07T09:19:51.264Z,5.33
2018-11-07T09:22:19.397Z,3.00
2018-11-07T09:24:47.594Z,6.43
2018-11-07T09:27:15.706Z,3.10
2018-11-07T09:29:43.951Z,2.93
2018-11-07T09:32:12.050Z,4.00
2018-11-07T09:34:40.184Z,3.53
2018-11-07T09:37:08.307Z,3.10
2018-11-07T09:42:45.258Z,3.57
2018-11-07T09:45:17.756Z,5.27
2018-11-07T09:47:49.786Z,3.40
2018-11-07T09:50:21.163Z,3.33
2018-11-07T09:52:51.820Z,2.77
2018-11-07T09:55:21.846Z,3.63
2018-11-07T09:57:50.374Z,3.03
2018-11-07T10:00:20.913Z,2.43
2018-11-07T10:02:50.052Z,7.27
2018-11-07T10:05:24.919Z,6.27
2018-11-07T10:11:40.111Z,3.27
2018-11-07T10:14:08.517Z,3.93
2018-11-07T10:16:37.023Z,4.73
2018-11-07T10:19:05.368Z,4.13
2018-11-07T10:21:38.008Z,3.33
2018-11-07T10:24:06.153Z,2.80
2018-11-07T10:26:35.900Z,2.47
2018-11-07T10:29:04.735Z,3.23
2018-11-07T10:31:32.711Z,2.70
2018-11-07T10:34:00.922Z,6.50
2018-11-07T10:36:29.052Z,2.73
2018-11-07T10:38:58.418Z,5.23
2018-11-07T10:41:26.493Z,2.90
2018-11-07T10:43:54.688Z,3.63
2018-11-07T10:46:23.483Z,2.40
2018-11-07T10:48:51.669Z,2.70
2018-11-07T10:51:19.935Z,4.27
2018-11-07T10:53:48.047Z,2.00
2018-11-07T10:56:16.167Z,3.87
2018-11-07T10:58:44.306Z,3.27
2018-11-07T11:01:16.657Z,3.20
2018-11-07T11:03:44.824Z,2.40
2018-11-07T11:06:12.908Z,4.97
2018-11-07T11:08:41.142Z,5.60
2018-11-07T11:11:09.302Z,2.70
2018-11-07T11:13:37.693Z,3.83
2018-11-07T11:16:05.812Z,2.30
2018-11-07T11:18:33.997Z,3.27
2018-11-07T11:21:02.613Z,2.77
2018-11-07T11:23:46.044Z,2.80
2018-11-07T11:29:16.408Z,4.23
2018-11-07T11:31:45.064Z,2.73
2018-11-07T11:34:13.366Z,3.77
2018-11-07T11:36:41.309Z,2.20
2018-11-07T11:39:11.113Z,2.40
2018-11-07T11:41:40.107Z,2.37
2018-11-07T11:44:10.639Z,2.93
2018-11-07T11:46:40.358Z,2.37
2018-11-07T11:49:11.582Z,1.60
2018-11-07T11:51:46.267Z,2.17
2018-11-07T11:54:14.416Z,1.73
2018-11-07T11:56:43.623Z,3.80
2018-11-07T11:59:11.889Z,1.80
2018-11-07T12:01:39.964Z,1.93
2018-11-07T12:04:08.112Z,2.40
2018-11-07T12:06:45.961Z,5.30
2018-11-07T12:09:16.106Z,4.53
2018-11-07T12:11:47.912Z,2.00
2018-11-07T12:14:15.987Z,3.93
2018-11-07T12:20:45.847Z,3.95
2018-11-07T12:23:13.999Z,2.77
2018-11-07T12:25:42.134Z,3.00
2018-11-07T12:28:10.644Z,1.40
2018-11-07T12:33:13.316Z,5.97
2018-11-07T12:35:41.414Z,1.67
2018-11-07T12:41:20.984Z,1.73
2018-11-07T12:47:34.058Z,3.23
2018-11-07T12:52:55.618Z,2.13
2018-11-07T12:56:14.690Z,3.13
2018-11-07T12:59:00.199Z,2.93
2018-11-07T13:01:47.309Z,2.07
2018-11-07T13:04:15.387Z,2.23
2018-11-07T13:06:43.493Z,2.70
2018-11-07T13:09:14.018Z,2.33
2018-11-07T13:11:42.110Z,2.83
2018-11-07T13:14:11.116Z,2.20
2018-11-07T13:16:39.321Z,1.70
2018-11-07T13:19:45.011Z,2.23
2018-11-07T13:22:13.152Z,1.07
2018-11-07T13:24:47.439Z,1.20
2018-11-07T13:27:16.084Z,3.40
2018-11-07T13:29:44.279Z,3.43
2018-11-07T13:32:13.116Z,1.37
2018-11-07T13:34:41.307Z,2.40
2018-11-07T13:37:09.632Z,2.90
2018-11-07T13:39:37.621Z,1.57
2018-11-07T13:42:06.132Z,2.13
2018-11-07T13:44:34.286Z,2.53
2018-11-07T13:47:02.441Z,1.33
2018-11-07T13:49:30.765Z,2.10
2018-11-07T13:52:20.949Z,1.67
2018-11-07T13:54:55.608Z,1.80
2018-11-07T13:57:27.220Z,4.37
2018-11-07T13:59:55.566Z,2.63
2018-11-07T14:02:36.065Z,2.00
2018-11-07T14:05:04.592Z,2.03
2018-11-07T14:13:37.832Z,3.00
2018-11-07T14:16:06.039Z,1.90
2018-11-07T14:18:36.995Z,2.57
2018-11-07T14:21:14.010Z,2.50
2018-11-07T14:23:43.997Z,2.77
2018-11-07T14:26:27.953Z,2.85
2018-11-07T14:28:56.142Z,2.50
2018-11-07T14:31:40.770Z,5.10
2018-11-07T14:34:19.641Z,2.93
2018-11-07T14:36:47.759Z,1.60
2018-11-07T14:39:15.910Z,2.00
2018-11-07T14:41:52.520Z,2.83
2018-11-07T14:44:20.629Z,2.70
2018-11-07T14:46:48.712Z,2.50
2018-11-07T14:49:17.284Z,1.90
2018-11-07T14:51:45.394Z,3.70
2018-11-07T14:54:13.534Z,2.63
2018-11-07T14:56:41.626Z,2.27
2018-11-07T14:59:09.817Z,2.03
2018-11-07T15:01:37.965Z,3.73
2018-11-07T15:04:06.033Z,3.87
2018-11-07T15:06:34.161Z,3.50
2018-11-07T15:09:02.909Z,2.60
2018-11-07T15:11:32.021Z,2.60
2018-11-07T15:14:00.128Z,3.20
2018-11-07T15:16:29.032Z,3.00
2018-11-07T15:18:57.275Z,5.60
2018-11-07T15:21:25.418Z,3.00
2018-11-07T15:23:53.560Z,1.90
2018-11-07T15:26:21.667Z,2.17
2018-11-07T15:28:49.953Z,3.47
2018-11-07T15:31:18.056Z,2.10
2018-11-07T15:33:46.147Z,4.13
2018-11-07T15:36:14.314Z,3.90
2018-11-07T15:38:42.450Z,4.63
2018-11-07T15:41:10.573Z,3.37
2018-11-07T15:43:38.685Z,2.63
2018-11-07T15:46:06.861Z,2.80
2018-11-07T15:48:35.147Z,3.20
2018-11-07T15:51:08.869Z,2.90
2018-11-07T15:53:37.039Z,1.63
2018-11-07T15:56:05.784Z,2.27
2018-11-07T15:58:34.125Z,4.03
2018-11-07T16:01:06.949Z,2.97
2018-11-07T16:03:40.620Z,4.63
2018-11-07T16:06:08.910Z,3.27
2018-11-07T16:08:37.124Z,4.90
2018-11-07T16:11:05.413Z,2.30
2018-11-07T16:13:34.760Z,3.70
2018-11-07T16:16:02.838Z,3.77
2018-11-07T16:18:31.028Z,3.90
2018-11-07T16:20:59.149Z,3.97
2018-11-07T16:23:27.306Z,5.00
2018-11-07T16:25:55.413Z,3.40
2018-11-07T16:28:23.456Z,3.43
2018-11-07T16:30:51.604Z,2.27
2018-11-07T16:33:19.690Z,2.07
2018-11-07T16:35:48.484Z,2.23
2018-11-07T16:38:16.631Z,2.67
2018-11-07T16:40:45.243Z,2.57
2018-11-07T16:43:13.337Z,3.47
2018-11-07T16:45:41.442Z,2.60
2018-11-07T16:48:10.299Z,2.57
2018-11-07T16:50:41.410Z,2.50
2018-11-07T16:53:21.617Z,2.80
2018-11-07T16:55:56.215Z,3.17
2018-11-07T16:58:24.329Z,2.23
2018-11-07T17:00:54.663Z,2.17
2018-11-07T17:03:23.458Z,4.23
2018-11-07T17:05:53.852Z,3.30
2018-11-07T17:08:24.515Z,1.93
2018-11-07T17:10:54.987Z,2.10
2018-11-07T17:13:23.028Z,1.80
2018-11-07T17:15:52.337Z,3.77
2018-11-07T17:18:20.386Z,2.00
2018-11-07T17:20:51.131Z,2.80
2018-11-07T17:26:22.379Z,2.90
2018-11-07T17:28:51.536Z,3.07
2018-11-07T17:31:19.713Z,2.40
2018-11-07T17:33:49.252Z,2.87
2018-11-07T17:36:17.735Z,2.43
2018-11-07T17:38:52.021Z,2.87
2018-11-07T17:41:22.060Z,2.20
2018-11-07T17:43:50.158Z,3.77
2018-11-07T17:46:18.282Z,2.70
2018-11-07T17:48:46.593Z,2.87
2018-11-07T17:51:21.933Z,2.17
2018-11-07T17:53:50.028Z,3.03
2018-11-07T17:56:18.135Z,2.73
2018-11-07T17:58:53.603Z,2.20
2018-11-07T18:01:21.718Z,2.70
2018-11-07T18:03:49.828Z,2.50
2018-11-07T18:06:18.406Z,2.93
2018-11-07T18:11:33.409Z,3.23
2018-11-07T18:14:25.571Z,3.63
2018-11-07T18:16:53.661Z,2.70
2018-11-07T18:19:21.870Z,4.00
2018-11-07T18:22:00.892Z,1.80
2018-11-07T18:24:29.040Z,3.37
2018-11-07T18:27:12.400Z,2.67
2018-11-07T18:29:40.699Z,1.87
2018-11-07T18:32:10.955Z,1.93
2018-11-07T18:34:39.022Z,1.80
2018-11-07T18:37:09.691Z,2.07
2018-11-07T18:40:02.951Z,2.13
2018-11-07T18:42:31.048Z,3.77
2018-11-07T18:45:00.156Z,2.13
2018-11-07T18:47:29.188Z,3.70
2018-11-07T18:50:00.282Z,2.60
2018-11-07T18:52:28.430Z,2.33
2018-11-07T18:54:56.556Z,3.40
2018-11-07T18:57:26.690Z,2.50
2018-11-07T18:59:54.838Z,3.10
2018-11-07T19:02:22.984Z,3.50
2018-11-07T19:04:51.105Z,3.20
2018-11-07T19:07:20.554Z,3.40
2018-11-07T19:09:48.767Z,3.23
2018-11-07T19:12:16.871Z,2.47
2018-11-07T19:14:44.972Z,3.33
2018-11-07T19:17:13.095Z,2.27
2018-11-07T19:20:00.663Z,3.07
2018-11-07T19:33:30.279Z,3.50
2018-11-07T19:39:18.020Z,3.30
2018-11-07T19:41:50.676Z,4.03
2018-11-07T19:51:00.097Z,3.57
2018-11-07T19:53:28.539Z,5.27
2018-11-07T19:56:06.480Z,7.80
2018-11-07T20:04:19.656Z,6.93
2018-11-07T20:06:48.236Z,9.15
2018-11-07T20:09:18.444Z,7.03
2018-11-07T20:11:46.810Z,4.50
2018-11-07T20:14:15.242Z,8.90
2018-11-07T20:16:43.421Z,6.93
2018-11-07T20:19:12.028Z,13.13
2018-11-07T20:21:41.072Z,13.63
2018-11-07T20:24:09.507Z,6.87
2018-11-07T20:26:37.616Z,8.27
2018-11-07T20:29:06.644Z,9.33
2018-11-07T20:31:40.164Z,12.87
2018-11-07T20:36:53.607Z,8.90
2018-11-07T20:39:21.868Z,7.73
2018-11-07T20:41:50.620Z,9.00
2018-11-07T20:44:19.431Z,7.10
2018-11-07T20:46:47.513Z,7.37
2018-11-07T20:49:15.781Z,5.67
2018-11-07T20:51:43.898Z,7.43
2018-11-07T20:54:12.262Z,6.77
2018-11-07T20:56:40.735Z,6.80
2018-11-07T20:59:10.319Z,6.20
2018-11-07T21:01:38.433Z,4.20
2018-11-07T21:04:07.140Z,8.17
2018-11-07T21:06:35.220Z,6.67
2018-11-07T21:09:03.406Z,10.93
2018-11-07T21:11:31.788Z,6.73
2018-11-07T21:13:59.873Z,8.33
2018-11-07T21:16:27.972Z,5.23
2018-11-07T21:18:56.142Z,4.20
2018-11-07T21:21:24.232Z,9.13
2018-11-07T21:23:52.330Z,6.73
2018-11-07T21:26:20.428Z,10.03
2018-11-07T21:28:48.614Z,7.53
2018-11-07T21:31:16.725Z,8.37
2018-11-07T21:34:03.450Z,7.50
2018-11-07T21:36:31.568Z,7.00
2018-11-07T21:39:01.058Z,6.77
2018-11-07T21:41:35.627Z,7.90
2018-11-07T21:44:04.259Z,8.93
2018-11-07T21:46:32.323Z,3.93
2018-11-07T21:49:00.617Z,9.73
2018-11-07T21:51:28.871Z,4.80
2018-11-07T21:53:56.976Z,5.37
2018-11-07T21:56:25.070Z,7.53
2018-11-07T21:58:53.374Z,6.73
2018-11-07T22:01:21.891Z,6.00
2018-11-07T22:03:50.007Z,9.70
2018-11-07T22:06:18.091Z,5.40
2018-11-07T22:08:46.757Z,6.20
2018-11-07T22:11:14.861Z,6.03
2018-11-07T22:13:42.982Z,24.77
2018-11-07T22:16:11.093Z,14.43
2018-11-07T22:18:39.518Z,10.00
2018-11-07T22:21:07.595Z,7.93
2018-11-07T22:23:36.460Z,4.87
2018-11-07T22:26:04.758Z,8.53
2018-11-07T22:28:33.018Z,12.40
2018-11-07T22:31:01.137Z,15.73
2018-11-07T22:33:29.222Z,11.27
2018-11-07T22:35:57.333Z,16.00
2018-11-07T22:38:25.511Z,8.60
2018-11-07T22:40:53.640Z,7.07
2018-11-07T22:43:21.755Z,8.47
2018-11-07T22:45:49.844Z,7.10
2018-11-07T22:48:19.014Z,8.47
2018-11-07T22:50:47.104Z,8.53
2018-11-07T22:53:15.216Z,17.07
2018-11-07T22:55:43.327Z,10.87
2018-11-07T22:58:11.530Z,9.13
2018-11-07T23:00:57.263Z,6.17
2018-11-07T23:03:25.356Z,3.27
2018-11-07T23:05:53.459Z,3.37
2018-11-07T23:08:22.312Z,5.67
2018-11-07T23:10:50.433Z,4.47
2018-11-07T23:13:18.513Z,3.10
2018-11-07T23:15:47.815Z,3.13
2018-11-07T23:18:17.092Z,3.27
2018-11-07T23:20:45.591Z,3.73
2018-11-07T23:23:14.009Z,2.70
2018-11-07T23:25:42.103Z,3.73
2018-11-07T23:28:10.289Z,3.33
2018-11-07T23:30:38.380Z,4.10
2018-11-07T23:33:06.540Z,2.43
2018-11-07T23:35:34.643Z,3.77
2018-11-07T23:38:02.793Z,2.37
2018-11-07T23:40:30.925Z,5.73
2018-11-07T23:42:59.014Z,4.03
2018-11-07T23:45:27.098Z,2.53
2018-11-07T23:47:55.186Z,5.23
2018-11-07T23:50:23.286Z,4.03
2018-11-07T23:53:02.064Z,4.33
2018-11-07T23:55:30.139Z,2.50
2018-11-07T23:57:58.227Z,5.00
